sensor_id;sensor_type;location;lat;lon;timestamp;P1;durP1;ratioP1;P2;durP2;ratioP2
67433;SDS011;54305;47.950;6.572;2023-11-22T00:00:08;9.18;;;4.72;;
67433;SDS011;54305;47.950;6.572;2023-11-22T00:02:34;9.75;;;4.75;;
67433;SDS011;54305;47.950;6.572;2023-11-22T00:05:00;8.63;;;4.40;;
67433;SDS011;54305;47.950;6.572;2023-11-22T00:07:26;8.00;;;4.55;;
67433;SDS011;54305;47.950;6.572;2023-11-22T00:09:54;7.05;;;3.97;;
67433;SDS011;54305;47.950;6.572;2023-11-22T00:12:19;8.48;;;4.45;;
67433;SDS011;54305;47.950;6.572;2023-11-22T00:14:45;8.23;;;3.88;;
67433;SDS011;54305;47.950;6.572;2023-11-22T00:17:11;8.75;;;4.32;;
67433;SDS011;54305;47.950;6.572;2023-11-22T00:19:37;11.50;;;4.65;;
67433;SDS011;54305;47.950;6.572;2023-11-22T00:22:03;7.32;;;4.28;;
67433;SDS011;54305;47.950;6.572;2023-11-22T00:24:36;6.60;;;4.03;;
67433;SDS011;54305;47.950;6.572;2023-11-22T00:27:02;14.77;;;3.85;;
67433;SDS011;54305;47.950;6.572;2023-11-22T00:29:28;7.30;;;4.32;;
67433;SDS011;54305;47.950;6.572;2023-11-22T00:31:53;6.85;;;4.15;;
67433;SDS011;54305;47.950;6.572;2023-11-22T00:34:19;10.90;;;5.32;;
67433;SDS011;54305;47.950;6.572;2023-11-22T00:36:44;9.93;;;5.30;;
67433;SDS011;54305;47.950;6.572;2023-11-22T00:39:10;8.25;;;5.15;;
67433;SDS011;54305;47.950;6.572;2023-11-22T00:41:38;9.23;;;5.45;;
67433;SDS011;54305;47.950;6.572;2023-11-22T00:44:04;9.07;;;5.25;;
67433;SDS011;54305;47.950;6.572;2023-11-22T00:46:30;9.45;;;5.43;;
67433;SDS011;54305;47.950;6.572;2023-11-22T00:48:56;9.15;;;5.47;;
67433;SDS011;54305;47.950;6.572;2023-11-22T00:51:22;11.20;;;5.70;;
67433;SDS011;54305;47.950;6.572;2023-11-22T00:53:47;8.57;;;5.47;;
67433;SDS011;54305;47.950;6.572;2023-11-22T00:56:13;9.80;;;5.10;;
67433;SDS011;54305;47.950;6.572;2023-11-22T00:58:38;8.50;;;4.75;;
67433;SDS011;54305;47.950;6.572;2023-11-22T01:01:04;7.32;;;5.03;;
67433;SDS011;54305;47.950;6.572;2023-11-22T01:03:30;10.85;;;4.88;;
67433;SDS011;54305;47.950;6.572;2023-11-22T01:05:55;9.40;;;5.43;;
67433;SDS011;54305;47.950;6.572;2023-11-22T01:08:21;11.40;;;5.97;;
67433;SDS011;54305;47.950;6.572;2023-11-22T01:10:47;12.50;;;6.78;;
67433;SDS011;54305;47.950;6.572;2023-11-22T01:13:12;10.55;;;6.00;;
67433;SDS011;54305;47.950;6.572;2023-11-22T01:15:39;11.85;;;6.40;;
67433;SDS011;54305;47.950;6.572;2023-11-22T01:18:05;15.98;;;7.00;;
67433;SDS011;54305;47.950;6.572;2023-11-22T01:20:31;17.35;;;7.38;;
67433;SDS011;54305;47.950;6.572;2023-11-22T01:22:56;16.60;;;7.38;;
67433;SDS011;54305;47.950;6.572;2023-11-22T01:25:21;14.07;;;7.45;;
67433;SDS011;54305;47.950;6.572;2023-11-22T01:27:47;15.65;;;8.43;;
67433;SDS011;54305;47.950;6.572;2023-11-22T01:30:12;16.58;;;8.23;;
67433;SDS011;54305;47.950;6.572;2023-11-22T01:32:38;18.92;;;8.27;;
67433;SDS011;54305;47.950;6.572;2023-11-22T01:35:04;14.43;;;7.78;;
67433;SDS011;54305;47.950;6.572;2023-11-22T01:37:30;16.55;;;8.27;;
67433;SDS011;54305;47.950;6.572;2023-11-22T01:39:57;20.17;;;8.68;;
67433;SDS011;54305;47.950;6.572;2023-11-22T01:42:22;18.25;;;8.75;;
67433;SDS011;54305;47.950;6.572;2023-11-22T01:44:49;13.52;;;7.70;;
67433;SDS011;54305;47.950;6.572;2023-11-22T01:47:14;16.10;;;8.85;;
67433;SDS011;54305;47.950;6.572;2023-11-22T01:49:40;18.33;;;8.60;;
67433;SDS011;54305;47.950;6.572;2023-11-22T01:52:06;21.88;;;9.63;;
67433;SDS011;54305;47.950;6.572;2023-11-22T01:54:32;20.42;;;9.57;;
67433;SDS011;54305;47.950;6.572;2023-11-22T01:56:58;20.08;;;9.43;;
67433;SDS011;54305;47.950;6.572;2023-11-22T01:59:24;21.75;;;9.90;;
67433;SDS011;54305;47.950;6.572;2023-11-22T02:01:51;25.42;;;9.93;;
67433;SDS011;54305;47.950;6.572;2023-11-22T02:04:18;26.73;;;9.00;;
67433;SDS011;54305;47.950;6.572;2023-11-22T02:06:43;21.88;;;9.70;;
67433;SDS011;54305;47.950;6.572;2023-11-22T02:09:09;20.10;;;9.50;;
67433;SDS011;54305;47.950;6.572;2023-11-22T02:11:38;21.80;;;9.65;;
67433;SDS011;54305;47.950;6.572;2023-11-22T02:14:04;17.73;;;8.80;;
67433;SDS011;54305;47.950;6.572;2023-11-22T02:16:32;18.77;;;7.65;;
67433;SDS011;54305;47.950;6.572;2023-11-22T02:18:57;22.60;;;9.23;;
67433;SDS011;54305;47.950;6.572;2023-11-22T02:21:23;22.48;;;9.23;;
67433;SDS011;54305;47.950;6.572;2023-11-22T02:23:48;29.77;;;7.88;;
67433;SDS011;54305;47.950;6.572;2023-11-22T02:26:14;30.58;;;7.35;;
67433;SDS011;54305;47.950;6.572;2023-11-22T02:28:42;17.35;;;7.40;;
67433;SDS011;54305;47.950;6.572;2023-11-22T02:31:08;32.55;;;8.05;;
67433;SDS011;54305;47.950;6.572;2023-11-22T02:33:34;36.35;;;7.07;;
67433;SDS011;54305;47.950;6.572;2023-11-22T02:36:00;33.28;;;7.18;;
67433;SDS011;54305;47.950;6.572;2023-11-22T02:38:27;16.13;;;7.65;;
67433;SDS011;54305;47.950;6.572;2023-11-22T02:40:53;14.25;;;6.97;;
67433;SDS011;54305;47.950;6.572;2023-11-22T02:43:19;15.95;;;7.75;;
67433;SDS011;54305;47.950;6.572;2023-11-22T02:45:44;15.40;;;7.72;;
67433;SDS011;54305;47.950;6.572;2023-11-22T02:48:10;16.30;;;7.13;;
67433;SDS011;54305;47.950;6.572;2023-11-22T02:50:35;14.10;;;6.60;;
67433;SDS011;54305;47.950;6.572;2023-11-22T02:53:04;13.88;;;7.05;;
67433;SDS011;54305;47.950;6.572;2023-11-22T02:55:30;18.70;;;7.57;;
67433;SDS011;54305;47.950;6.572;2023-11-22T02:57:55;14.02;;;6.95;;
67433;SDS011;54305;47.950;6.572;2023-11-22T03:00:21;18.15;;;7.18;;
67433;SDS011;54305;47.950;6.572;2023-11-22T03:02:46;14.55;;;6.65;;
67433;SDS011;54305;47.950;6.572;2023-11-22T03:05:12;12.10;;;6.57;;
67433;SDS011;54305;47.950;6.572;2023-11-22T03:07:39;17.08;;;6.45;;
67433;SDS011;54305;47.950;6.572;2023-11-22T03:10:06;12.35;;;6.00;;
67433;SDS011;54305;47.950;6.572;2023-11-22T03:12:33;10.88;;;5.47;;
67433;SDS011;54305;47.950;6.572;2023-11-22T03:14:59;10.40;;;5.63;;
67433;SDS011;54305;47.950;6.572;2023-11-22T03:17:27;8.25;;;4.97;;
67433;SDS011;54305;47.950;6.572;2023-11-22T03:19:57;8.27;;;4.75;;
67433;SDS011;54305;47.950;6.572;2023-11-22T03:22:26;9.05;;;4.93;;
67433;SDS011;54305;47.950;6.572;2023-11-22T03:24:55;8.07;;;4.45;;
67433;SDS011;54305;47.950;6.572;2023-11-22T03:27:20;7.03;;;4.15;;
67433;SDS011;54305;47.950;6.572;2023-11-22T03:29:48;7.30;;;4.35;;
67433;SDS011;54305;47.950;6.572;2023-11-22T03:32:14;7.55;;;4.22;;
67433;SDS011;54305;47.950;6.572;2023-11-22T03:34:40;8.05;;;4.32;;
67433;SDS011;54305;47.950;6.572;2023-11-22T03:37:05;6.43;;;3.88;;
67433;SDS011;54305;47.950;6.572;2023-11-22T03:39:30;6.07;;;3.70;;
67433;SDS011;54305;47.950;6.572;2023-11-22T03:41:56;5.25;;;3.10;;
67433;SDS011;54305;47.950;6.572;2023-11-22T03:44:22;4.80;;;3.35;;
67433;SDS011;54305;47.950;6.572;2023-11-22T03:46:47;4.40;;;3.35;;
67433;SDS011;54305;47.950;6.572;2023-11-22T03:49:13;4.10;;;3.08;;
67433;SDS011;54305;47.950;6.572;2023-11-22T03:51:39;4.35;;;3.00;;
67433;SDS011;54305;47.950;6.572;2023-11-22T03:54:07;3.47;;;3.15;;
67433;SDS011;54305;47.950;6.572;2023-11-22T03:56:34;5.22;;;3.30;;
67433;SDS011;54305;47.950;6.572;2023-11-22T03:59:00;6.63;;;3.10;;
67433;SDS011;54305;47.950;6.572;2023-11-22T04:01:25;4.10;;;2.90;;
67433;SDS011;54305;47.950;6.572;2023-11-22T04:03:51;3.95;;;2.67;;
67433;SDS011;54305;47.950;6.572;2023-11-22T04:06:16;5.05;;;2.70;;
67433;SDS011;54305;47.950;6.572;2023-11-22T04:08:42;4.25;;;2.65;;
67433;SDS011;54305;47.950;6.572;2023-11-22T04:11:14;3.45;;;2.42;;
67433;SDS011;54305;47.950;6.572;2023-11-22T04:13:41;6.20;;;3.40;;
67433;SDS011;54305;47.950;6.572;2023-11-22T04:16:07;5.35;;;3.38;;
67433;SDS011;54305;47.950;6.572;2023-11-22T04:18:40;4.82;;;3.38;;
67433;SDS011;54305;47.950;6.572;2023-11-22T04:21:07;6.53;;;3.75;;
67433;SDS011;54305;47.950;6.572;2023-11-22T04:23:32;6.80;;;3.13;;
67433;SDS011;54305;47.950;6.572;2023-11-22T04:26:01;3.15;;;2.85;;
67433;SDS011;54305;47.950;6.572;2023-11-22T04:28:27;3.38;;;2.72;;
67433;SDS011;54305;47.950;6.572;2023-11-22T04:30:54;2.80;;;2.47;;
67433;SDS011;54305;47.950;6.572;2023-11-22T04:33:20;4.13;;;2.47;;
67433;SDS011;54305;47.950;6.572;2023-11-22T04:35:46;2.90;;;2.20;;
67433;SDS011;54305;47.950;6.572;2023-11-22T04:38:12;3.47;;;1.92;;
67433;SDS011;54305;47.950;6.572;2023-11-22T04:40:38;2.10;;;1.90;;
67433;SDS011;54305;47.950;6.572;2023-11-22T04:43:03;5.78;;;1.95;;
67433;SDS011;54305;47.950;6.572;2023-11-22T04:45:29;1.77;;;1.63;;
67433;SDS011;54305;47.950;6.572;2023-11-22T04:47:54;3.38;;;1.50;;
67433;SDS011;54305;47.950;6.572;2023-11-22T04:50:22;1.95;;;1.30;;
67433;SDS011;54305;47.950;6.572;2023-11-22T04:52:49;1.48;;;1.25;;
67433;SDS011;54305;47.950;6.572;2023-11-22T04:55:15;1.38;;;1.17;;
67433;SDS011;54305;47.950;6.572;2023-11-22T04:57:40;1.38;;;1.27;;
67433;SDS011;54305;47.950;6.572;2023-11-22T05:00:06;1.30;;;1.20;;
67433;SDS011;54305;47.950;6.572;2023-11-22T05:02:32;1.15;;;1.05;;
67433;SDS011;54305;47.950;6.572;2023-11-22T05:04:58;1.15;;;1.00;;
67433;SDS011;54305;47.950;6.572;2023-11-22T05:07:23;1.30;;;1.20;;
67433;SDS011;54305;47.950;6.572;2023-11-22T05:09:49;3.45;;;1.35;;
67433;SDS011;54305;47.950;6.572;2023-11-22T05:12:14;1.40;;;1.30;;
67433;SDS011;54305;47.950;6.572;2023-11-22T05:14:39;1.52;;;1.40;;
67433;SDS011;54305;47.950;6.572;2023-11-22T05:17:05;5.40;;;1.80;;
67433;SDS011;54305;47.950;6.572;2023-11-22T05:19:31;2.30;;;2.00;;
67433;SDS011;54305;47.950;6.572;2023-11-22T05:21:56;2.50;;;1.90;;
67433;SDS011;54305;47.950;6.572;2023-11-22T05:24:22;3.30;;;2.20;;
67433;SDS011;54305;47.950;6.572;2023-11-22T05:26:48;3.65;;;2.47;;
67433;SDS011;54305;47.950;6.572;2023-11-22T05:29:14;4.75;;;2.33;;
67433;SDS011;54305;47.950;6.572;2023-11-22T05:31:39;2.97;;;2.30;;
67433;SDS011;54305;47.950;6.572;2023-11-22T05:34:05;4.93;;;2.58;;
67433;SDS011;54305;47.950;6.572;2023-11-22T05:36:30;3.30;;;2.42;;
67433;SDS011;54305;47.950;6.572;2023-11-22T05:38:56;15.65;;;2.40;;
67433;SDS011;54305;47.950;6.572;2023-11-22T05:41:24;7.85;;;2.63;;
67433;SDS011;54305;47.950;6.572;2023-11-22T05:43:53;3.67;;;2.40;;
67433;SDS011;54305;47.950;6.572;2023-11-22T05:46:22;12.82;;;2.63;;
67433;SDS011;54305;47.950;6.572;2023-11-22T05:48:50;26.13;;;2.72;;
67433;SDS011;54305;47.950;6.572;2023-11-22T05:51:18;44.05;;;3.22;;
67433;SDS011;54305;47.950;6.572;2023-11-22T05:53:44;27.05;;;2.60;;
67433;SDS011;54305;47.950;6.572;2023-11-22T05:56:10;9.73;;;2.55;;
67433;SDS011;54305;47.950;6.572;2023-11-22T05:58:36;3.40;;;2.70;;
67433;SDS011;54305;47.950;6.572;2023-11-22T06:01:04;4.15;;;2.42;;
67433;SDS011;54305;47.950;6.572;2023-11-22T06:03:31;7.70;;;2.60;;
67433;SDS011;54305;47.950;6.572;2023-11-22T06:05:56;26.23;;;2.83;;
67433;SDS011;54305;47.950;6.572;2023-11-22T06:08:22;12.15;;;2.58;;
67433;SDS011;54305;47.950;6.572;2023-11-22T06:10:48;7.28;;;2.53;;
67433;SDS011;54305;47.950;6.572;2023-11-22T06:13:13;4.60;;;2.13;;
67433;SDS011;54305;47.950;6.572;2023-11-22T06:15:39;47.28;;;2.85;;
67433;SDS011;54305;47.950;6.572;2023-11-22T06:18:05;29.33;;;2.20;;
67433;SDS011;54305;47.950;6.572;2023-11-22T06:20:31;46.40;;;2.47;;
67433;SDS011;54305;47.950;6.572;2023-11-22T06:22:57;4.25;;;2.00;;
67433;SDS011;54305;47.950;6.572;2023-11-22T06:25:22;2.67;;;2.08;;
67433;SDS011;54305;47.950;6.572;2023-11-22T06:27:47;71.82;;;2.65;;
67433;SDS011;54305;47.950;6.572;2023-11-22T06:30:13;3.45;;;2.03;;
67433;SDS011;54305;47.950;6.572;2023-11-22T06:32:39;4.03;;;2.20;;
67433;SDS011;54305;47.950;6.572;2023-11-22T06:35:06;2.80;;;1.80;;
67433;SDS011;54305;47.950;6.572;2023-11-22T06:37:33;1.50;;;1.40;;
67433;SDS011;54305;47.950;6.572;2023-11-22T06:39:59;3.42;;;1.60;;
67433;SDS011;54305;47.950;6.572;2023-11-22T06:42:25;3.58;;;2.15;;
67433;SDS011;54305;47.950;6.572;2023-11-22T06:44:51;1.70;;;1.60;;
67433;SDS011;54305;47.950;6.572;2023-11-22T06:47:18;1.60;;;1.50;;
67433;SDS011;54305;47.950;6.572;2023-11-22T06:49:46;2.38;;;1.48;;
67433;SDS011;54305;47.950;6.572;2023-11-22T06:52:11;2.08;;;1.20;;
67433;SDS011;54305;47.950;6.572;2023-11-22T06:54:37;1.27;;;1.17;;
67433;SDS011;54305;47.950;6.572;2023-11-22T06:57:03;1.83;;;1.60;;
67433;SDS011;54305;47.950;6.572;2023-11-22T06:59:28;1.65;;;1.40;;
67433;SDS011;54305;47.950;6.572;2023-11-22T07:01:54;1.35;;;1.25;;
67433;SDS011;54305;47.950;6.572;2023-11-22T07:04:21;1.50;;;1.40;;
67433;SDS011;54305;47.950;6.572;2023-11-22T07:06:47;2.78;;;1.38;;
67433;SDS011;54305;47.950;6.572;2023-11-22T07:09:14;1.25;;;1.15;;
67433;SDS011;54305;47.950;6.572;2023-11-22T07:11:39;1.70;;;1.25;;
67433;SDS011;54305;47.950;6.572;2023-11-22T07:14:05;1.52;;;1.25;;
67433;SDS011;54305;47.950;6.572;2023-11-22T07:16:31;1.08;;;1.00;;
67433;SDS011;54305;47.950;6.572;2023-11-22T07:18:59;0.80;;;0.80;;
67433;SDS011;54305;47.950;6.572;2023-11-22T07:21:28;1.13;;;1.10;;
67433;SDS011;54305;47.950;6.572;2023-11-22T07:23:55;1.05;;;1.00;;
67433;SDS011;54305;47.950;6.572;2023-11-22T07:26:20;0.88;;;0.85;;
67433;SDS011;54305;47.950;6.572;2023-11-22T07:28:46;0.90;;;0.90;;
67433;SDS011;54305;47.950;6.572;2023-11-22T07:31:11;1.65;;;1.20;;
67433;SDS011;54305;47.950;6.572;2023-11-22T07:33:37;1.10;;;1.10;;
67433;SDS011;54305;47.950;6.572;2023-11-22T07:36:03;1.30;;;1.20;;
67433;SDS011;54305;47.950;6.572;2023-11-22T07:38:30;1.33;;;1.10;;
67433;SDS011;54305;47.950;6.572;2023-11-22T07:40:56;1.02;;;0.90;;
67433;SDS011;54305;47.950;6.572;2023-11-22T07:43:22;0.60;;;0.60;;
67433;SDS011;54305;47.950;6.572;2023-11-22T07:45:47;1.60;;;1.30;;
67433;SDS011;54305;47.950;6.572;2023-11-22T07:48:13;1.33;;;1.23;;
67433;SDS011;54305;47.950;6.572;2023-11-22T07:50:39;1.77;;;1.30;;
67433;SDS011;54305;47.950;6.572;2023-11-22T07:53:08;2.05;;;1.55;;
67433;SDS011;54305;47.950;6.572;2023-11-22T07:55:37;1.42;;;1.33;;
67433;SDS011;54305;47.950;6.572;2023-11-22T07:58:03;1.65;;;1.52;;
67433;SDS011;54305;47.950;6.572;2023-11-22T08:00:31;5.68;;;1.52;;
67433;SDS011;54305;47.950;6.572;2023-11-22T08:02:59;1.90;;;1.35;;
67433;SDS011;54305;47.950;6.572;2023-11-22T08:05:27;1.95;;;1.40;;
67433;SDS011;54305;47.950;6.572;2023-11-22T08:07:53;5.38;;;1.50;;
67433;SDS011;54305;47.950;6.572;2023-11-22T08:10:18;1.45;;;1.35;;
67433;SDS011;54305;47.950;6.572;2023-11-22T08:12:47;1.98;;;1.33;;
67433;SDS011;54305;47.950;6.572;2023-11-22T08:15:15;1.08;;;0.98;;
67433;SDS011;54305;47.950;6.572;2023-11-22T08:17:41;1.30;;;1.20;;
67433;SDS011;54305;47.950;6.572;2023-11-22T08:20:07;1.42;;;1.33;;
67433;SDS011;54305;47.950;6.572;2023-11-22T08:22:37;2.05;;;1.20;;
67433;SDS011;54305;47.950;6.572;2023-11-22T08:25:04;1.85;;;1.45;;
67433;SDS011;54305;47.950;6.572;2023-11-22T08:27:30;3.03;;;1.63;;
67433;SDS011;54305;47.950;6.572;2023-11-22T08:29:56;1.30;;;1.20;;
67433;SDS011;54305;47.950;6.572;2023-11-22T08:32:21;1.30;;;1.20;;
67433;SDS011;54305;47.950;6.572;2023-11-22T08:34:50;1.98;;;1.50;;
67433;SDS011;54305;47.950;6.572;2023-11-22T08:37:16;1.40;;;1.30;;
67433;SDS011;54305;47.950;6.572;2023-11-22T08:39:42;1.67;;;1.42;;
67433;SDS011;54305;47.950;6.572;2023-11-22T08:42:08;1.42;;;1.30;;
67433;SDS011;54305;47.950;6.572;2023-11-22T08:44:37;1.40;;;1.30;;
67433;SDS011;54305;47.950;6.572;2023-11-22T08:47:03;4.25;;;1.40;;
67433;SDS011;54305;47.950;6.572;2023-11-22T08:49:29;1.60;;;1.30;;
67433;SDS011;54305;47.950;6.572;2023-11-22T08:51:55;4.70;;;1.23;;
67433;SDS011;54305;47.950;6.572;2023-11-22T08:54:21;3.15;;;1.50;;
67433;SDS011;54305;47.950;6.572;2023-11-22T08:56:47;1.40;;;1.30;;
67433;SDS011;54305;47.950;6.572;2023-11-22T08:59:12;1.40;;;1.30;;
67433;SDS011;54305;47.950;6.572;2023-11-22T09:01:38;2.20;;;1.67;;
67433;SDS011;54305;47.950;6.572;2023-11-22T09:04:05;3.20;;;1.48;;
67433;SDS011;54305;47.950;6.572;2023-11-22T09:06:33;1.63;;;1.48;;
67433;SDS011;54305;47.950;6.572;2023-11-22T09:08:59;1.50;;;1.40;;
67433;SDS011;54305;47.950;6.572;2023-11-22T09:11:25;1.90;;;1.17;;
67433;SDS011;54305;47.950;6.572;2023-11-22T09:13:51;2.10;;;1.40;;
67433;SDS011;54305;47.950;6.572;2023-11-22T09:16:18;1.67;;;1.30;;
67433;SDS011;54305;47.950;6.572;2023-11-22T09:18:47;1.42;;;1.30;;
67433;SDS011;54305;47.950;6.572;2023-11-22T09:21:12;3.28;;;1.50;;
67433;SDS011;54305;47.950;6.572;2023-11-22T09:23:37;1.75;;;1.48;;
67433;SDS011;54305;47.950;6.572;2023-11-22T09:26:03;1.45;;;1.25;;
67433;SDS011;54305;47.950;6.572;2023-11-22T09:28:30;1.83;;;1.48;;
67433;SDS011;54305;47.950;6.572;2023-11-22T09:30:56;1.83;;;1.40;;
67433;SDS011;54305;47.950;6.572;2023-11-22T09:35:56;1.25;;;1.15;;
67433;SDS011;54305;47.950;6.572;2023-11-22T09:38:23;1.40;;;1.30;;
67433;SDS011;54305;47.950;6.572;2023-11-22T09:40:49;3.53;;;1.20;;
67433;SDS011;54305;47.950;6.572;2023-11-22T09:43:15;1.48;;;1.38;;
67433;SDS011;54305;47.950;6.572;2023-11-22T09:45:46;1.20;;;1.10;;
67433;SDS011;54305;47.950;6.572;2023-11-22T09:48:17;1.60;;;1.25;;
67433;SDS011;54305;47.950;6.572;2023-11-22T09:53:34;0.88;;;0.88;;
67433;SDS011;54305;47.950;6.572;2023-11-22T09:56:05;1.05;;;1.00;;
67433;SDS011;54305;47.950;6.572;2023-11-22T09:58:34;2.40;;;1.10;;
67433;SDS011;54305;47.950;6.572;2023-11-22T10:01:02;1.15;;;1.05;;
67433;SDS011;54305;47.950;6.572;2023-11-22T10:03:32;1.40;;;1.08;;
67433;SDS011;54305;47.950;6.572;2023-11-22T10:05:58;1.13;;;1.02;;
67433;SDS011;54305;47.950;6.572;2023-11-22T10:08:28;4.78;;;1.10;;
67433;SDS011;54305;47.950;6.572;2023-11-22T10:10:55;1.50;;;1.00;;
67433;SDS011;54305;47.950;6.572;2023-11-22T10:13:21;1.30;;;1.20;;
67433;SDS011;54305;47.950;6.572;2023-11-22T10:15:48;1.02;;;1.00;;
67433;SDS011;54305;47.950;6.572;2023-11-22T10:18:17;1.00;;;1.00;;
67433;SDS011;54305;47.950;6.572;2023-11-22T10:20:44;1.10;;;1.00;;
67433;SDS011;54305;47.950;6.572;2023-11-22T10:23:15;2.47;;;1.08;;
67433;SDS011;54305;47.950;6.572;2023-11-22T10:28:12;1.08;;;1.05;;
67433;SDS011;54305;47.950;6.572;2023-11-22T10:30:38;1.90;;;0.98;;
67433;SDS011;54305;47.950;6.572;2023-11-22T10:33:05;1.13;;;1.05;;
67433;SDS011;54305;47.950;6.572;2023-11-22T10:35:31;1.23;;;1.10;;
67433;SDS011;54305;47.950;6.572;2023-11-22T10:37:58;1.98;;;1.17;;
67433;SDS011;54305;47.950;6.572;2023-11-22T10:40:28;1.20;;;1.10;;
67433;SDS011;54305;47.950;6.572;2023-11-22T10:42:54;56.05;;;9.50;;
67433;SDS011;54305;47.950;6.572;2023-11-22T10:45:21;0.98;;;0.98;;
67433;SDS011;54305;47.950;6.572;2023-11-22T10:47:46;0.80;;;0.80;;
67433;SDS011;54305;47.950;6.572;2023-11-22T10:50:14;0.75;;;0.73;;
67433;SDS011;54305;47.950;6.572;2023-11-22T10:52:41;1.00;;;0.90;;
67433;SDS011;54305;47.950;6.572;2023-11-22T10:55:11;0.73;;;0.73;;
67433;SDS011;54305;47.950;6.572;2023-11-22T10:57:43;0.93;;;0.90;;
67433;SDS011;54305;47.950;6.572;2023-11-22T11:00:13;1.10;;;1.00;;
67433;SDS011;54305;47.950;6.572;2023-11-22T11:02:41;1.20;;;0.90;;
67433;SDS011;54305;47.950;6.572;2023-11-22T11:05:15;0.80;;;0.80;;
67433;SDS011;54305;47.950;6.572;2023-11-22T11:07:51;0.75;;;0.75;;
67433;SDS011;54305;47.950;6.572;2023-11-22T11:10:38;1.20;;;1.10;;
67433;SDS011;54305;47.950;6.572;2023-11-22T11:13:06;1.73;;;1.27;;
67433;SDS011;54305;47.950;6.572;2023-11-22T11:15:34;1.13;;;1.02;;
67433;SDS011;54305;47.950;6.572;2023-11-22T11:18:00;1.90;;;1.10;;
67433;SDS011;54305;47.950;6.572;2023-11-22T11:20:31;0.90;;;0.90;;
67433;SDS011;54305;47.950;6.572;2023-11-22T11:22:57;0.98;;;0.98;;
67433;SDS011;54305;47.950;6.572;2023-11-22T11:25:23;1.45;;;0.93;;
67433;SDS011;54305;47.950;6.572;2023-11-22T11:27:56;0.80;;;0.80;;
67433;SDS011;54305;47.950;6.572;2023-11-22T11:32:57;60.67;;;23.35;;
67433;SDS011;54305;47.950;6.572;2023-11-22T11:35:37;3.55;;;0.60;;
67433;SDS011;54305;47.950;6.572;2023-11-22T11:38:03;0.68;;;0.68;;
67433;SDS011;54305;47.950;6.572;2023-11-22T11:40:31;1.10;;;1.10;;
67433;SDS011;54305;47.950;6.572;2023-11-22T11:42:59;0.80;;;0.75;;
67433;SDS011;54305;47.950;6.572;2023-11-22T11:45:25;0.82;;;0.80;;
67433;SDS011;54305;47.950;6.572;2023-11-22T11:47:52;0.93;;;0.82;;
67433;SDS011;54305;47.950;6.572;2023-11-22T11:50:17;1.23;;;0.88;;
67433;SDS011;54305;47.950;6.572;2023-11-22T11:52:45;1.23;;;0.70;;
67433;SDS011;54305;47.950;6.572;2023-11-22T11:55:10;0.77;;;0.77;;
67433;SDS011;54305;47.950;6.572;2023-11-22T11:57:36;0.85;;;0.85;;
67433;SDS011;54305;47.950;6.572;2023-11-22T12:00:02;1.00;;;0.90;;
67433;SDS011;54305;47.950;6.572;2023-11-22T12:02:30;0.98;;;0.90;;
67433;SDS011;54305;47.950;6.572;2023-11-22T12:04:55;2.15;;;0.70;;
67433;SDS011;54305;47.950;6.572;2023-11-22T12:07:21;0.80;;;0.80;;
67433;SDS011;54305;47.950;6.572;2023-11-22T12:09:46;1.08;;;0.80;;
67433;SDS011;54305;47.950;6.572;2023-11-22T12:12:12;0.90;;;0.90;;
67433;SDS011;54305;47.950;6.572;2023-11-22T12:14:38;0.63;;;0.63;;
67433;SDS011;54305;47.950;6.572;2023-11-22T12:17:04;0.80;;;0.80;;
67433;SDS011;54305;47.950;6.572;2023-11-22T12:19:31;0.80;;;0.80;;
67433;SDS011;54305;47.950;6.572;2023-11-22T12:21:56;1.00;;;0.75;;
67433;SDS011;54305;47.950;6.572;2023-11-22T12:24:22;0.85;;;0.82;;
67433;SDS011;54305;47.950;6.572;2023-11-22T12:26:49;1.10;;;1.00;;
67433;SDS011;54305;47.950;6.572;2023-11-22T12:29:15;1.08;;;0.98;;
67433;SDS011;54305;47.950;6.572;2023-11-22T12:31:47;1.23;;;1.00;;
67433;SDS011;54305;47.950;6.572;2023-11-22T12:34:18;0.93;;;0.93;;
67433;SDS011;54305;47.950;6.572;2023-11-22T12:36:45;1.20;;;1.10;;
67433;SDS011;54305;47.950;6.572;2023-11-22T12:39:12;0.88;;;0.82;;
67433;SDS011;54305;47.950;6.572;2023-11-22T12:41:44;1.10;;;1.00;;
67433;SDS011;54305;47.950;6.572;2023-11-22T12:44:12;1.17;;;0.90;;
67433;SDS011;54305;47.950;6.572;2023-11-22T12:46:50;0.80;;;0.80;;
67433;SDS011;54305;47.950;6.572;2023-11-22T12:49:24;0.75;;;0.75;;
67433;SDS011;54305;47.950;6.572;2023-11-22T12:51:54;1.02;;;0.90;;
67433;SDS011;54305;47.950;6.572;2023-11-22T12:54:20;2.90;;;0.90;;
67433;SDS011;54305;47.950;6.572;2023-11-22T12:56:49;1.48;;;0.90;;
67433;SDS011;54305;47.950;6.572;2023-11-22T12:59:23;1.10;;;1.00;;
67433;SDS011;54305;47.950;6.572;2023-11-22T13:01:49;0.80;;;0.80;;
67433;SDS011;54305;47.950;6.572;2023-11-22T13:04:15;0.90;;;0.90;;
67433;SDS011;54305;47.950;6.572;2023-11-22T13:06:41;7.10;;;0.98;;
67433;SDS011;54305;47.950;6.572;2023-11-22T13:09:07;0.80;;;0.80;;
67433;SDS011;54305;47.950;6.572;2023-11-22T13:11:39;0.90;;;0.90;;
67433;SDS011;54305;47.950;6.572;2023-11-22T13:14:05;1.52;;;0.88;;
67433;SDS011;54305;47.950;6.572;2023-11-22T13:16:31;2.60;;;0.80;;
67433;SDS011;54305;47.950;6.572;2023-11-22T13:18:57;0.95;;;0.85;;
67433;SDS011;54305;47.950;6.572;2023-11-22T13:21:22;1.35;;;1.00;;
67433;SDS011;54305;47.950;6.572;2023-11-22T13:23:48;2.42;;;0.80;;
67433;SDS011;54305;47.950;6.572;2023-11-22T13:26:15;2.45;;;0.90;;
67433;SDS011;54305;47.950;6.572;2023-11-22T13:28:41;0.70;;;0.70;;
67433;SDS011;54305;47.950;6.572;2023-11-22T13:31:07;1.02;;;0.90;;
67433;SDS011;54305;47.950;6.572;2023-11-22T13:33:33;0.90;;;0.90;;
67433;SDS011;54305;47.950;6.572;2023-11-22T13:35:59;1.00;;;1.00;;
67433;SDS011;54305;47.950;6.572;2023-11-22T13:38:24;0.90;;;0.90;;
67433;SDS011;54305;47.950;6.572;2023-11-22T13:40:50;1.38;;;1.10;;
67433;SDS011;54305;47.950;6.572;2023-11-22T13:43:16;3.00;;;1.20;;
67433;SDS011;54305;47.950;6.572;2023-11-22T13:45:43;3.78;;;1.20;;
67433;SDS011;54305;47.950;6.572;2023-11-22T13:48:10;1.20;;;1.10;;
67433;SDS011;54305;47.950;6.572;2023-11-22T13:50:36;1.23;;;1.13;;
67433;SDS011;54305;47.950;6.572;2023-11-22T13:53:02;1.58;;;1.33;;
67433;SDS011;54305;47.950;6.572;2023-11-22T13:55:29;1.17;;;1.08;;
67433;SDS011;54305;47.950;6.572;2023-11-22T13:57:57;1.30;;;1.05;;
67433;SDS011;54305;47.950;6.572;2023-11-22T14:00:25;1.30;;;1.10;;
67433;SDS011;54305;47.950;6.572;2023-11-22T14:02:59;1.58;;;1.25;;
67433;SDS011;54305;47.950;6.572;2023-11-22T14:05:32;1.27;;;1.17;;
67433;SDS011;54305;47.950;6.572;2023-11-22T14:07:59;1.33;;;1.23;;
67433;SDS011;54305;47.950;6.572;2023-11-22T14:10:25;1.20;;;1.10;;
67433;SDS011;54305;47.950;6.572;2023-11-22T14:12:51;1.27;;;1.17;;
67433;SDS011;54305;47.950;6.572;2023-11-22T14:15:16;1.48;;;1.15;;
67433;SDS011;54305;47.950;6.572;2023-11-22T14:17:42;1.42;;;1.30;;
67433;SDS011;54305;47.950;6.572;2023-11-22T14:20:09;3.05;;;1.08;;
67433;SDS011;54305;47.950;6.572;2023-11-22T14:22:36;3.97;;;2.97;;
67433;SDS011;54305;47.950;6.572;2023-11-22T14:25:01;1.95;;;1.52;;
67433;SDS011;54305;47.950;6.572;2023-11-22T14:27:27;1.77;;;1.10;;
67433;SDS011;54305;47.950;6.572;2023-11-22T14:29:55;1.75;;;1.35;;
67433;SDS011;54305;47.950;6.572;2023-11-22T14:32:21;4.53;;;1.48;;
67433;SDS011;54305;47.950;6.572;2023-11-22T14:34:47;1.42;;;1.10;;
67433;SDS011;54305;47.950;6.572;2023-11-22T14:37:13;3.42;;;1.40;;
67433;SDS011;54305;47.950;6.572;2023-11-22T14:39:39;1.17;;;1.10;;
67433;SDS011;54305;47.950;6.572;2023-11-22T14:42:05;1.30;;;1.20;;
67433;SDS011;54305;47.950;6.572;2023-11-22T14:44:32;1.70;;;1.35;;
67433;SDS011;54305;47.950;6.572;2023-11-22T14:47:01;1.42;;;1.30;;
67433;SDS011;54305;47.950;6.572;2023-11-22T14:49:32;1.50;;;1.20;;
67433;SDS011;54305;47.950;6.572;2023-11-22T14:51:58;1.67;;;1.30;;